sensor_id;sensor_type;location;lat;lon;timestamp;pressure;altitude;pressure_sealevel;temperature;humidity
33795;BME280;51430;52.242;21.118;2023-09-19T00:00:48;99688.70;;;19.82;86.81
33795;BME280;51430;52.242;21.118;2023-09-19T00:03:36;99687.81;;;19.78;87.02
33795;BME280;51430;52.242;21.118;2023-09-19T00:06:07;99685.08;;;19.78;87.15
33795;BME280;51430;52.242;21.118;2023-09-19T00:08:36;99684.47;;;19.78;87.28
33795;BME280;51430;52.242;21.118;2023-09-19T00:11:22;99683.83;;;19.72;87.75
33795;BME280;51430;52.242;21.118;2023-09-19T00:13:59;99679.94;;;19.76;87.75
33795;BME280;51430;52.242;21.118;2023-09-19T00:16:27;99681.63;;;19.76;87.38
33795;BME280;51430;52.242;21.118;2023-09-19T00:18:55;99678.66;;;19.77;87.22
33795;BME280;51430;52.242;21.118;2023-09-19T00:21:23;99679.93;;;19.70;87.75
33795;BME280;51430;52.242;21.118;2023-09-19T00:23:51;99677.42;;;19.73;87.66
33795;BME280;51430;52.242;21.118;2023-09-19T00:27:28;99676.84;;;19.71;87.99
33795;BME280;51430;52.242;21.118;2023-09-19T00:31:19;99674.24;;;19.61;89.28
33795;BME280;51430;52.242;21.118;2023-09-19T00:34:57;99676.85;;;19.55;89.59
33795;BME280;51430;52.242;21.118;2023-09-19T00:38:17;99673.95;;;19.33;90.83
33795;BME280;51430;52.242;21.118;2023-09-19T00:42:22;99676.81;;;19.32;91.51
33795;BME280;51430;52.242;21.118;2023-09-19T00:44:48;99665.41;;;19.31;91.31
33795;BME280;51430;52.242;21.118;2023-09-19T00:47:18;99665.65;;;19.38;91.11
33795;BME280;51430;52.242;21.118;2023-09-19T00:49:45;99665.42;;;19.39;91.03
33795;BME280;51430;52.242;21.118;2023-09-19T00:52:16;99663.70;;;19.39;91.03
33795;BME280;51430;52.242;21.118;2023-09-19T00:56:09;99655.88;;;19.39;91.17
33795;BME280;51430;52.242;21.118;2023-09-19T00:58:36;99654.43;;;19.34;91.25
33795;BME280;51430;52.242;21.118;2023-09-19T01:01:04;99651.21;;;19.34;91.31
33795;BME280;51430;52.242;21.118;2023-09-19T01:03:33;99654.31;;;19.31;91.38
33795;BME280;51430;52.242;21.118;2023-09-19T01:06:00;99655.52;;;19.30;91.51
33795;BME280;51430;52.242;21.118;2023-09-19T01:08:30;99651.02;;;19.29;91.62
33795;BME280;51430;52.242;21.118;2023-09-19T01:11:01;99650.66;;;19.29;91.86
33795;BME280;51430;52.242;21.118;2023-09-19T01:13:52;99647.06;;;19.26;91.62
33795;BME280;51430;52.242;21.118;2023-09-19T01:16:49;99644.20;;;19.28;91.69
33795;BME280;51430;52.242;21.118;2023-09-19T01:22:46;99641.64;;;19.26;91.51
33795;BME280;51430;52.242;21.118;2023-09-19T01:30:43;99625.10;;;19.16;92.23
33795;BME280;51430;52.242;21.118;2023-09-19T01:33:10;99620.84;;;19.18;92.19
33795;BME280;51430;52.242;21.118;2023-09-19T01:35:38;99619.16;;;19.18;92.26
33795;BME280;51430;52.242;21.118;2023-09-19T01:38:08;99619.25;;;19.23;92.04
33795;BME280;51430;52.242;21.118;2023-09-19T01:40:42;99618.23;;;19.23;91.94
33795;BME280;51430;52.242;21.118;2023-09-19T01:43:12;99615.77;;;19.20;92.05
33795;BME280;51430;52.242;21.118;2023-09-19T01:54:27;99605.55;;;19.06;92.87
33795;BME280;51430;52.242;21.118;2023-09-19T01:57:09;99601.91;;;19.11;92.66
33795;BME280;51430;52.242;21.118;2023-09-19T01:59:45;99601.45;;;19.16;92.52
33795;BME280;51430;52.242;21.118;2023-09-19T02:02:16;99596.70;;;19.19;92.23
33795;BME280;51430;52.242;21.118;2023-09-19T02:04:44;99595.52;;;19.22;92.12
33795;BME280;51430;52.242;21.118;2023-09-19T02:07:10;99599.40;;;19.29;91.66
33795;BME280;51430;52.242;21.118;2023-09-19T02:09:37;99602.04;;;19.22;91.78
33795;BME280;51430;52.242;21.118;2023-09-19T02:12:06;99603.91;;;19.19;91.96
33795;BME280;51430;52.242;21.118;2023-09-19T02:14:33;99602.07;;;19.21;92.12
33795;BME280;51430;52.242;21.118;2023-09-19T02:17:00;99596.84;;;19.20;91.92
33795;BME280;51430;52.242;21.118;2023-09-19T02:19:27;99594.43;;;19.21;91.93
33795;BME280;51430;52.242;21.118;2023-09-19T02:21:54;99591.67;;;19.18;92.08
33795;BME280;51430;52.242;21.118;2023-09-19T02:24:21;99586.62;;;19.14;92.16
33795;BME280;51430;52.242;21.118;2023-09-19T02:26:47;99588.39;;;19.09;92.52
33795;BME280;51430;52.242;21.118;2023-09-19T02:29:14;99586.57;;;19.05;92.75
33795;BME280;51430;52.242;21.118;2023-09-19T02:31:40;99587.77;;;19.04;92.69
33795;BME280;51430;52.242;21.118;2023-09-19T02:34:07;99584.51;;;18.99;92.86
33795;BME280;51430;52.242;21.118;2023-09-19T02:36:36;99583.80;;;18.90;93.41
33795;BME280;51430;52.242;21.118;2023-09-19T02:39:02;99578.94;;;18.87;93.73
33795;BME280;51430;52.242;21.118;2023-09-19T02:41:31;99571.02;;;18.85;93.83
33795;BME280;51430;52.242;21.118;2023-09-19T02:43:59;99567.04;;;18.83;93.94
33795;BME280;51430;52.242;21.118;2023-09-19T02:46:26;99559.77;;;18.82;93.84
33795;BME280;51430;52.242;21.118;2023-09-19T02:48:52;99565.43;;;18.82;93.95
33795;BME280;51430;52.242;21.118;2023-09-19T02:51:48;99569.88;;;18.74;94.27
33795;BME280;51430;52.242;21.118;2023-09-19T02:54:14;99566.10;;;18.69;94.73
33795;BME280;51430;52.242;21.118;2023-09-19T02:56:42;99561.91;;;18.70;94.78
33795;BME280;51430;52.242;21.118;2023-09-19T02:59:09;99554.80;;;18.75;94.57
33795;BME280;51430;52.242;21.118;2023-09-19T03:01:36;99556.30;;;18.77;94.25
33795;BME280;51430;52.242;21.118;2023-09-19T03:04:05;99561.23;;;18.67;94.70
33795;BME280;51430;52.242;21.118;2023-09-19T03:06:34;99565.30;;;18.63;94.94
33795;BME280;51430;52.242;21.118;2023-09-19T03:09:01;99563.36;;;18.57;95.31
33795;BME280;51430;52.242;21.118;2023-09-19T03:11:29;99557.81;;;18.57;95.30
33795;BME280;51430;52.242;21.118;2023-09-19T03:13:57;99550.60;;;18.56;95.34
33795;BME280;51430;52.242;21.118;2023-09-19T03:16:24;99545.19;;;18.57;95.16
33795;BME280;51430;52.242;21.118;2023-09-19T03:18:51;99538.29;;;18.56;95.28
33795;BME280;51430;52.242;21.118;2023-09-19T03:21:18;99536.89;;;18.54;95.34
33795;BME280;51430;52.242;21.118;2023-09-19T03:23:45;99530.05;;;18.51;95.66
33795;BME280;51430;52.242;21.118;2023-09-19T03:26:13;99535.96;;;18.52;95.44
33795;BME280;51430;52.242;21.118;2023-09-19T03:28:40;99543.02;;;18.46;95.85
33795;BME280;51430;52.242;21.118;2023-09-19T03:31:07;99546.52;;;18.49;95.76
33795;BME280;51430;52.242;21.118;2023-09-19T03:33:34;99548.01;;;18.47;95.62
33795;BME280;51430;52.242;21.118;2023-09-19T03:36:02;99545.05;;;18.45;95.76
33795;BME280;51430;52.242;21.118;2023-09-19T03:38:33;99540.58;;;18.46;95.63
33795;BME280;51430;52.242;21.118;2023-09-19T03:41:02;99538.05;;;18.45;95.98
33795;BME280;51430;52.242;21.118;2023-09-19T03:43:28;99539.42;;;18.45;96.03
33795;BME280;51430;52.242;21.118;2023-09-19T03:45:55;99536.91;;;18.43;96.08
33795;BME280;51430;52.242;21.118;2023-09-19T03:48:22;99529.11;;;18.42;95.98
33795;BME280;51430;52.242;21.118;2023-09-19T03:50:49;99530.48;;;18.43;96.08
33795;BME280;51430;52.242;21.118;2023-09-19T03:53:16;99526.41;;;18.48;95.66
33795;BME280;51430;52.242;21.118;2023-09-19T03:55:45;99525.77;;;18.47;95.74
33795;BME280;51430;52.242;21.118;2023-09-19T04:00:09;99523.71;;;18.47;95.53
33795;BME280;51430;52.242;21.118;2023-09-19T04:03:55;99524.83;;;18.33;96.86
33795;BME280;51430;52.242;21.118;2023-09-19T04:07:33;99526.52;;;18.26;96.70
33795;BME280;51430;52.242;21.118;2023-09-19T04:10:02;99524.90;;;18.27;97.05
33795;BME280;51430;52.242;21.118;2023-09-19T04:12:31;99527.38;;;18.32;96.63
33795;BME280;51430;52.242;21.118;2023-09-19T04:15:01;99526.45;;;18.36;96.40
33795;BME280;51430;52.242;21.118;2023-09-19T04:17:33;99525.42;;;18.37;96.28
33795;BME280;51430;52.242;21.118;2023-09-19T04:22:39;99507.08;;;18.43;96.00
33795;BME280;51430;52.242;21.118;2023-09-19T04:25:07;99500.01;;;18.25;96.73
33795;BME280;51430;52.242;21.118;2023-09-19T04:28:00;99498.09;;;18.25;96.89
33795;BME280;51430;52.242;21.118;2023-09-19T04:30:28;99498.17;;;18.20;97.19
33795;BME280;51430;52.242;21.118;2023-09-19T04:32:56;99496.48;;;18.24;97.00
33795;BME280;51430;52.242;21.118;2023-09-19T04:35:24;99490.96;;;18.26;96.89
33795;BME280;51430;52.242;21.118;2023-09-19T04:37:53;99492.80;;;18.27;96.92
33795;BME280;51430;52.242;21.118;2023-09-19T04:40:49;99497.36;;;18.30;96.59
33795;BME280;51430;52.242;21.118;2023-09-19T04:43:17;99492.77;;;18.24;96.81
33795;BME280;51430;52.242;21.118;2023-09-19T04:45:45;99494.52;;;18.27;97.06
33795;BME280;51430;52.242;21.118;2023-09-19T04:48:14;99493.69;;;18.32;96.76
33795;BME280;51430;52.242;21.118;2023-09-19T04:50:44;99492.30;;;18.35;96.74
33795;BME280;51430;52.242;21.118;2023-09-19T04:53:11;99489.35;;;18.40;96.38
33795;BME280;51430;52.242;21.118;2023-09-19T04:55:40;99488.16;;;18.43;96.43
33795;BME280;51430;52.242;21.118;2023-09-19T04:59:14;99485.08;;;18.49;95.85
33795;BME280;51430;52.242;21.118;2023-09-19T05:01:43;99487.75;;;18.47;96.00
33795;BME280;51430;52.242;21.118;2023-09-19T05:04:11;99482.47;;;18.52;95.82
33795;BME280;51430;52.242;21.118;2023-09-19T05:06:39;99481.83;;;18.60;95.42
33795;BME280;51430;52.242;21.118;2023-09-19T05:09:07;99483.38;;;18.68;95.16
33795;BME280;51430;52.242;21.118;2023-09-19T05:11:36;99481.95;;;18.80;94.66
33795;BME280;51430;52.242;21.118;2023-09-19T05:14:05;99481.55;;;18.89;94.14
33795;BME280;51430;52.242;21.118;2023-09-19T05:16:33;99485.39;;;18.95;93.87
33795;BME280;51430;52.242;21.118;2023-09-19T05:19:05;99485.65;;;19.01;93.81
33795;BME280;51430;52.242;21.118;2023-09-19T05:21:33;99484.81;;;19.07;93.14
33795;BME280;51430;52.242;21.118;2023-09-19T05:25:43;99476.65;;;19.21;92.66
33795;BME280;51430;52.242;21.118;2023-09-19T05:29:21;99474.21;;;19.13;93.06
33795;BME280;51430;52.242;21.118;2023-09-19T05:31:49;99472.70;;;19.03;93.72
33795;BME280;51430;52.242;21.118;2023-09-19T05:34:17;99473.84;;;19.06;93.79
33795;BME280;51430;52.242;21.118;2023-09-19T05:36:45;99475.03;;;19.04;93.85
33795;BME280;51430;52.242;21.118;2023-09-19T05:39:13;99475.21;;;19.11;93.88
33795;BME280;51430;52.242;21.118;2023-09-19T05:41:41;99474.80;;;19.10;93.91
33795;BME280;51430;52.242;21.118;2023-09-19T05:45:37;99477.63;;;19.21;93.62
33795;BME280;51430;52.242;21.118;2023-09-19T05:49:16;99477.70;;;19.15;93.93
33795;BME280;51430;52.242;21.118;2023-09-19T05:51:45;99471.86;;;19.05;94.72
33795;BME280;51430;52.242;21.118;2023-09-19T05:54:15;99473.13;;;19.15;94.48
33795;BME280;51430;52.242;21.118;2023-09-19T05:56:45;99470.14;;;19.27;93.71
33795;BME280;51430;52.242;21.118;2023-09-19T05:59:14;99466.06;;;19.36;93.34
33795;BME280;51430;52.242;21.118;2023-09-19T06:01:45;99462.21;;;19.40;93.28
33795;BME280;51430;52.242;21.118;2023-09-19T06:05:31;99466.13;;;19.58;92.23
33795;BME280;51430;52.242;21.118;2023-09-19T06:09:37;99471.25;;;19.55;92.37
33795;BME280;51430;52.242;21.118;2023-09-19T06:12:06;99471.94;;;19.59;92.39
33795;BME280;51430;52.242;21.118;2023-09-19T06:14:34;99468.84;;;19.79;91.64
33795;BME280;51430;52.242;21.118;2023-09-19T06:17:02;99470.21;;;19.94;90.76
33795;BME280;51430;52.242;21.118;2023-09-19T06:19:30;99468.70;;;20.03;90.27
33795;BME280;51430;52.242;21.118;2023-09-19T06:21:58;99476.49;;;20.02;90.42
33795;BME280;51430;52.242;21.118;2023-09-19T06:24:27;99486.96;;;20.03;89.61
33795;BME280;51430;52.242;21.118;2023-09-19T06:26:56;99493.40;;;19.91;90.17
33795;BME280;51430;52.242;21.118;2023-09-19T06:29:23;99499.12;;;19.99;90.04
33795;BME280;51430;52.242;21.118;2023-09-19T06:31:52;99498.63;;;20.00;89.72
33795;BME280;51430;52.242;21.118;2023-09-19T06:34:20;99498.05;;;20.24;88.74
33795;BME280;51430;52.242;21.118;2023-09-19T06:36:48;99504.11;;;20.37;88.07
33795;BME280;51430;52.242;21.118;2023-09-19T06:39:17;99507.30;;;20.41;87.43
33795;BME280;51430;52.242;21.118;2023-09-19T06:41:44;99504.45;;;20.56;87.20
33795;BME280;51430;52.242;21.118;2023-09-19T06:44:13;99509.22;;;20.80;85.93
33795;BME280;51430;52.242;21.118;2023-09-19T06:46:42;99519.92;;;20.93;84.46
33795;BME280;51430;52.242;21.118;2023-09-19T06:49:12;99521.27;;;20.98;84.10
33795;BME280;51430;52.242;21.118;2023-09-19T06:51:41;99521.88;;;20.97;84.00
33795;BME280;51430;52.242;21.118;2023-09-19T06:54:10;99524.49;;;21.09;83.80
33795;BME280;51430;52.242;21.118;2023-09-19T06:56:38;99523.30;;;21.21;83.70
33795;BME280;51430;52.242;21.118;2023-09-19T06:59:06;99522.28;;;21.39;82.81
33795;BME280;51430;52.242;21.118;2023-09-19T07:01:35;99522.04;;;21.62;82.19
33795;BME280;51430;52.242;21.118;2023-09-19T07:04:04;99524.08;;;21.64;81.72
33795;BME280;51430;52.242;21.118;2023-09-19T07:06:58;99533.97;;;21.90;80.73
33795;BME280;51430;52.242;21.118;2023-09-19T07:09:26;99531.66;;;22.02;79.84
33795;BME280;51430;52.242;21.118;2023-09-19T07:11:56;99529.45;;;22.14;79.02
33795;BME280;51430;52.242;21.118;2023-09-19T07:14:24;99529.71;;;22.22;78.83
33795;BME280;51430;52.242;21.118;2023-09-19T07:16:52;99530.71;;;22.40;78.47
33795;BME280;51430;52.242;21.118;2023-09-19T07:19:20;99526.93;;;22.66;77.42
33795;BME280;51430;52.242;21.118;2023-09-19T07:21:49;99527.00;;;22.62;75.21
33795;BME280;51430;52.242;21.118;2023-09-19T07:27:37;99539.55;;;22.69;76.17
33795;BME280;51430;52.242;21.118;2023-09-19T07:30:07;99539.56;;;22.91;74.68
33795;BME280;51430;52.242;21.118;2023-09-19T07:32:35;99551.29;;;23.06;73.56
33795;BME280;51430;52.242;21.118;2023-09-19T07:35:07;99557.55;;;23.01;73.68
33795;BME280;51430;52.242;21.118;2023-09-19T07:42:02;99553.73;;;23.00;74.08
33795;BME280;51430;52.242;21.118;2023-09-19T07:45:08;99559.91;;;23.06;73.81
33795;BME280;51430;52.242;21.118;2023-09-19T07:48:28;99566.11;;;23.11;73.04
33795;BME280;51430;52.242;21.118;2023-09-19T07:52:25;99563.96;;;23.06;73.60
33795;BME280;51430;52.242;21.118;2023-09-19T07:55:46;99568.59;;;23.57;71.52
33795;BME280;51430;52.242;21.118;2023-09-19T07:59:26;99569.25;;;23.80;70.38
33795;BME280;51430;52.242;21.118;2023-09-19T08:03:06;99565.04;;;24.02;69.30
33795;BME280;51430;52.242;21.118;2023-09-19T08:06:54;99569.41;;;24.17;69.52
33795;BME280;51430;52.242;21.118;2023-09-19T08:10:33;99574.91;;;24.37;69.23
33795;BME280;51430;52.242;21.118;2023-09-19T08:14:16;99578.44;;;24.74;67.48
33795;BME280;51430;52.242;21.118;2023-09-19T08:17:54;99577.99;;;25.03;66.47
33795;BME280;51430;52.242;21.118;2023-09-19T08:21:48;99581.05;;;25.56;64.83
33795;BME280;51430;52.242;21.118;2023-09-19T08:24:15;99587.73;;;25.57;63.78
33795;BME280;51430;52.242;21.118;2023-09-19T08:26:41;99584.19;;;25.53;64.21
33795;BME280;51430;52.242;21.118;2023-09-19T08:29:08;99583.21;;;25.77;64.17
33795;BME280;51430;52.242;21.118;2023-09-19T08:31:38;99591.81;;;25.71;63.48
33795;BME280;51430;52.242;21.118;2023-09-19T08:36:36;99591.98;;;25.65;63.70
33795;BME280;51430;52.242;21.118;2023-09-19T08:40:11;99587.34;;;25.44;64.40
33795;BME280;51430;52.242;21.118;2023-09-19T08:44:14;99588.06;;;25.97;64.73
33795;BME280;51430;52.242;21.118;2023-09-19T08:46:41;99594.19;;;26.18;63.13
33795;BME280;51430;52.242;21.118;2023-09-19T08:49:18;99596.05;;;26.28;61.95
33795;BME280;51430;52.242;21.118;2023-09-19T08:52:22;99600.84;;;26.11;62.87
33795;BME280;51430;52.242;21.118;2023-09-19T08:54:59;99599.42;;;25.91;63.36
33795;BME280;51430;52.242;21.118;2023-09-19T08:57:29;99594.32;;;25.86;64.51
33795;BME280;51430;52.242;21.118;2023-09-19T09:00:26;99591.48;;;25.84;64.18
33795;BME280;51430;52.242;21.118;2023-09-19T09:02:55;99588.27;;;25.66;63.91
33795;BME280;51430;52.242;21.118;2023-09-19T09:05:23;99586.80;;;25.30;64.95
33795;BME280;51430;52.242;21.118;2023-09-19T09:07:51;99589.46;;;25.12;66.08
33795;BME280;51430;52.242;21.118;2023-09-19T09:10:18;99591.06;;;25.11;66.97
33795;BME280;51430;52.242;21.118;2023-09-19T09:13:07;99594.27;;;25.10;67.07
33795;BME280;51430;52.242;21.118;2023-09-19T09:15:36;99601.67;;;25.10;66.57
33795;BME280;51430;52.242;21.118;2023-09-19T09:20:30;99610.93;;;24.97;66.35
33795;BME280;51430;52.242;21.118;2023-09-19T09:24:32;99616.21;;;24.62;67.81
33795;BME280;51430;52.242;21.118;2023-09-19T09:28:01;99618.03;;;24.30;68.93
33795;BME280;51430;52.242;21.118;2023-09-19T09:30:36;99619.83;;;24.03;70.26
33795;BME280;51430;52.242;21.118;2023-09-19T09:33:09;99629.33;;;23.95;70.83
33795;BME280;51430;52.242;21.118;2023-09-19T09:35:57;99633.23;;;23.80;71.65
33795;BME280;51430;52.242;21.118;2023-09-19T09:38:48;99636.70;;;23.67;71.82
33795;BME280;51430;52.242;21.118;2023-09-19T09:41:36;99638.64;;;23.55;72.45
33795;BME280;51430;52.242;21.118;2023-09-19T09:44:23;99632.15;;;23.48;73.31
33795;BME280;51430;52.242;21.118;2023-09-19T09:46:51;99628.52;;;23.44;74.24
33795;BME280;51430;52.242;21.118;2023-09-19T09:49:24;99638.86;;;23.32;74.26
33795;BME280;51430;52.242;21.118;2023-09-19T09:52:03;99652.24;;;23.13;75.08
33795;BME280;51430;52.242;21.118;2023-09-19T09:55:02;99651.86;;;22.89;77.74
33795;BME280;51430;52.242;21.118;2023-09-19T09:57:36;99653.89;;;22.76;81.18
33795;BME280;51430;52.242;21.118;2023-09-19T10:00:04;99654.27;;;22.60;82.83
33795;BME280;51430;52.242;21.118;2023-09-19T10:02:39;99658.36;;;22.29;83.73
33795;BME280;51430;52.242;21.118;2023-09-19T10:05:55;99658.13;;;21.97;86.35
33795;BME280;51430;52.242;21.118;2023-09-19T10:09:53;99657.85;;;21.65;89.58
33795;BME280;51430;52.242;21.118;2023-09-19T10:13:29;99673.23;;;21.35;90.53
33795;BME280;51430;52.242;21.118;2023-09-19T11:31:43;99680.45;;;20.68;100.00
33795;BME280;51430;52.242;21.118;2023-09-19T11:35:07;99683.23;;;20.69;100.00
33795;BME280;51430;52.242;21.118;2023-09-19T11:39:25;99686.50;;;20.76;100.00
33795;BME280;51430;52.242;21.118;2023-09-19T11:42:45;99685.88;;;20.82;100.00
33795;BME280;51430;52.242;21.118;2023-09-19T11:46:02;99683.23;;;21.01;100.00
33795;BME280;51430;52.242;21.118;2023-09-19T11:50:06;99684.46;;;21.14;100.00
33795;BME280;51430;52.242;21.118;2023-09-19T11:58:51;99688.15;;;20.85;100.00
33795;BME280;51430;52.242;21.118;2023-09-19T12:02:39;99689.09;;;20.79;100.00
33795;BME280;51430;52.242;21.118;2023-09-19T12:06:21;99694.78;;;20.74;100.00
33795;BME280;51430;52.242;21.118;2023-09-19T12:10:04;99699.99;;;20.76;100.00
33795;BME280;51430;52.242;21.118;2023-09-19T12:13:45;99703.91;;;20.59;98.96
33795;BME280;51430;52.242;21.118;2023-09-19T12:17:35;99700.41;;;20.63;100.00
33795;BME280;51430;52.242;21.118;2023-09-19T12:21:28;99708.73;;;20.60;100.00
33795;BME280;51430;52.242;21.118;2023-09-19T12:24:52;99709.70;;;20.65;99.80
33795;BME280;51430;52.242;21.118;2023-09-19T12:33:29;99724.52;;;20.51;98.74
33795;BME280;51430;52.242;21.118;2023-09-19T12:35:58;99723.59;;;20.51;98.39
33795;BME280;51430;52.242;21.118;2023-09-19T12:38:27;99726.15;;;20.56;97.08
33795;BME280;51430;52.242;21.118;2023-09-19T12:41:03;99728.83;;;20.57;97.29
33795;BME280;51430;52.242;21.118;2023-09-19T12:43:58;99733.00;;;20.65;96.89
33795;BME280;51430;52.242;21.118;2023-09-19T12:48:31;99731.96;;;20.68;96.89
33795;BME280;51430;52.242;21.118;2023-09-19T12:52:17;99733.53;;;20.59;97.85
33795;BME280;51430;52.242;21.118;2023-09-19T12:56:06;99733.82;;;20.58;98.43
33795;BME280;51430;52.242;21.118;2023-09-19T12:59:40;99733.09;;;20.60;98.79
33795;BME280;51430;52.242;21.118;2023-09-19T13:03:45;99730.42;;;20.58;99.57
33795;BME280;51430;52.242;21.118;2023-09-19T13:07:45;99726.85;;;20.70;100.00
33795;BME280;51430;52.242;21.118;2023-09-19T13:11:07;99723.91;;;20.69;99.96
33795;BME280;51430;52.242;21.118;2023-09-19T13:15:19;99723.95;;;20.69;100.00
33795;BME280;51430;52.242;21.118;2023-09-19T13:18:51;99719.43;;;20.65;99.23
33795;BME280;51430;52.242;21.118;2023-09-19T13:22:50;99721.95;;;20.69;99.27
33795;BME280;51430;52.242;21.118;2023-09-19T13:26:38;99723.48;;;20.71;99.20
33795;BME280;51430;52.242;21.118;2023-09-19T13:29:06;99725.39;;;20.71;98.55
33795;BME280;51430;52.242;21.118;2023-09-19T13:31:53;99726.16;;;20.84;98.56
33795;BME280;51430;52.242;21.118;2023-09-19T13:34:22;99727.26;;;20.98;97.61
33795;BME280;51430;52.242;21.118;2023-09-19T13:36:50;99730.88;;;21.05;97.60
33795;BME280;51430;52.242;21.118;2023-09-19T13:39:18;99733.02;;;21.16;98.50
33795;BME280;51430;52.242;21.118;2023-09-19T13:41:49;99732.96;;;21.21;97.09
33795;BME280;51430;52.242;21.118;2023-09-19T13:44:18;99735.27;;;21.26;97.63
33795;BME280;51430;52.242;21.118;2023-09-19T13:46:47;99735.78;;;21.32;97.67
33795;BME280;51430;52.242;21.118;2023-09-19T13:49:15;99737.52;;;21.36;97.22
33795;BME280;51430;52.242;21.118;2023-09-19T13:51:48;99734.16;;;21.37;96.65
33795;BME280;51430;52.242;21.118;2023-09-19T13:54:17;99738.58;;;21.43;96.03
33795;BME280;51430;52.242;21.118;2023-09-19T13:56:59;99739.27;;;21.43;95.38
33795;BME280;51430;52.242;21.118;2023-09-19T13:59:28;99737.75;;;21.42;95.34
33795;BME280;51430;52.242;21.118;2023-09-19T14:01:58;99735.74;;;21.45;95.54
33795;BME280;51430;52.242;21.118;2023-09-19T14:04:27;99740.19;;;21.49;94.15
33795;BME280;51430;52.242;21.118;2023-09-19T14:06:57;99743.05;;;21.48;95.06
33795;BME280;51430;52.242;21.118;2023-09-19T14:09:26;99743.08;;;21.46;94.97
33795;BME280;51430;52.242;21.118;2023-09-19T14:12:03;99741.32;;;21.43;94.41
33795;BME280;51430;52.242;21.118;2023-09-19T14:14:31;99740.08;;;21.39;94.48
33795;BME280;51430;52.242;21.118;2023-09-19T14:16:59;99740.41;;;21.46;94.36
33795;BME280;51430;52.242;21.118;2023-09-19T14:19:28;99742.04;;;21.51;93.64
33795;BME280;51430;52.242;21.118;2023-09-19T14:21:56;99744.65;;;21.53;93.64
33795;BME280;51430;52.242;21.118;2023-09-19T14:24:25;99740.45;;;21.57;94.45
33795;BME280;51430;52.242;21.118;2023-09-19T14:26:52;99743.95;;;21.57;94.30
33795;BME280;51430;52.242;21.118;2023-09-19T14:29:20;99743.10;;;21.65;93.85
33795;BME280;51430;52.242;21.118;2023-09-19T14:34:04;99743.16;;;21.66;93.70
33795;BME280;51430;52.242;21.118;2023-09-19T14:38:05;99749.18;;;21.59;94.33
33795;BME280;51430;52.242;21.118;2023-09-19T14:41:40;99747.44;;;21.52;95.18
33795;BME280;51430;52.242;21.118;2023-09-19T14:45:17;99755.66;;;21.48;96.53
33795;BME280;51430;52.242;21.118;2023-09-19T14:48:43;99751.77;;;21.41;98.34
33795;BME280;51430;52.242;21.118;2023-09-19T14:52:13;99755.71;;;21.31;99.06
33795;BME280;51430;52.242;21.118;2023-09-19T14:56:13;99748.88;;;21.21;99.07
33795;BME280;51430;52.242;21.118;2023-09-19T14:59:31;99754.56;;;21.22;96.13
33795;BME280;51430;52.242;21.118;2023-09-19T15:03:12;99759.10;;;21.20;94.27
33795;BME280;51430;52.242;21.118;2023-09-19T15:06:52;99764.91;;;21.20;94.83
33795;BME280;51430;52.242;21.118;2023-09-19T15:10:50;99759.63;;;21.26;93.40
33795;BME280;51430;52.242;21.118;2023-09-19T15:14:20;99771.05;;;21.29;93.24
33795;BME280;51430;52.242;21.118;2023-09-19T15:17:56;99767.34;;;21.31;93.82
33795;BME280;51430;52.242;21.118;2023-09-19T15:21:33;99778.65;;;21.35;92.12
33795;BME280;51430;52.242;21.118;2023-09-19T15:25:38;99777.45;;;21.31;91.85
33795;BME280;51430;52.242;21.118;2023-09-19T15:29:11;99775.84;;;21.30;92.43
33795;BME280;51430;52.242;21.118;2023-09-19T15:32:31;99777.40;;;21.29;92.50
33795;BME280;51430;52.242;21.118;2023-09-19T15:36:13;99775.27;;;21.27;89.25
33795;BME280;51430;52.242;21.118;2023-09-19T15:39:54;99776.80;;;21.25;89.60
33795;BME280;51430;52.242;21.118;2023-09-19T15:42:22;99778.86;;;21.48;89.01
33795;BME280;51430;52.242;21.118;2023-09-19T15:44:50;99779.03;;;21.81;88.78
33795;BME280;51430;52.242;21.118;2023-09-19T15:47:19;99781.52;;;21.96;87.34
33795;BME280;51430;52.242;21.118;2023-09-19T15:49:48;99781.25;;;22.06;88.26
33795;BME280;51430;52.242;21.118;2023-09-19T15:52:17;99783.96;;;22.12;88.66
33795;BME280;51430;52.242;21.118;2023-09-19T15:56:10;99789.13;;;22.50;86.19
33795;BME280;51430;52.242;21.118;2023-09-19T15:59:52;99794.59;;;22.70;84.63
33795;BME280;51430;52.242;21.118;2023-09-19T16:03:51;99801.84;;;22.52;85.11
33795;BME280;51430;52.242;21.118;2023-09-19T16:07:08;99803.20;;;22.17;84.12
33795;BME280;51430;52.242;21.118;2023-09-19T16:10:42;99809.36;;;22.02;86.01
33795;BME280;51430;52.242;21.118;2023-09-19T16:14:48;99809.30;;;21.91;87.12
33795;BME280;51430;52.242;21.118;2023-09-19T16:18:00;99811.95;;;21.70;86.52
33795;BME280;51430;52.242;21.118;2023-09-19T16:21:38;99818.86;;;21.47;87.70
33795;BME280;51430;52.242;21.118;2023-09-19T16:25:40;99822.97;;;21.35;89.15
33795;BME280;51430;52.242;21.118;2023-09-19T16:28:58;99824.92;;;21.17;89.48
33795;BME280;51430;52.242;21.118;2023-09-19T16:32:45;99825.08;;;21.06;90.40
33795;BME280;51430;52.242;21.118;2023-09-19T16:36:24;99827.89;;;20.91;91.22
33795;BME280;51430;52.242;21.118;2023-09-19T16:40:24;99825.56;;;20.82;92.26
33795;BME280;51430;52.242;21.118;2023-09-19T16:43:43;99832.14;;;20.65;93.48
33795;BME280;51430;52.242;21.118;2023-09-19T16:47:21;99830.02;;;20.54;93.74
33795;BME280;51430;52.242;21.118;2023-09-19T16:51:02;99832.14;;;20.44;94.01
33795;BME280;51430;52.242;21.118;2023-09-19T16:54:41;99833.17;;;20.36;94.70
33795;BME280;51430;52.242;21.118;2023-09-19T16:58:20;99836.78;;;20.30;95.27
33795;BME280;51430;52.242;21.118;2023-09-19T17:02:00;99843.60;;;20.24;95.38
33795;BME280;51430;52.242;21.118;2023-09-19T17:05:58;99847.41;;;20.19;95.43